createdAt,value
2018-12-07T00:00:30.154Z,1008.19
2018-12-07T00:01:30.172Z,1008.27
2018-12-07T00:02:30.200Z,1008.18
2018-12-07T00:03:30.260Z,1008.18
2018-12-07T00:04:30.229Z,1008.15
2018-12-07T00:05:30.240Z,1008.17
2018-12-07T00:06:30.255Z,1008.12
2018-12-07T00:07:30.275Z,1008.11
2018-12-07T00:08:30.302Z,1008.10
2018-12-07T00:09:30.316Z,1008.05
2018-12-07T00:10:30.332Z,1008.04
2018-12-07T00:11:30.354Z,1008.02
2018-12-07T00:12:30.376Z,1008.06
2018-12-07T00:13:30.386Z,1008.00
2018-12-07T00:14:30.431Z,1007.96
2018-12-07T00:15:30.423Z,1007.96
2018-12-07T00:16:30.437Z,1007.94
2018-12-07T00:18:30.491Z,1007.94
2018-12-07T00:19:30.503Z,1007.90
2018-12-07T00:20:30.514Z,1007.86
2018-12-07T00:21:30.532Z,1007.87
2018-12-07T00:22:30.546Z,1007.86
2018-12-07T00:23:30.582Z,1007.82
2018-12-07T00:25:51.622Z,1007.79
2018-12-07T00:26:30.621Z,1007.80
2018-12-07T00:27:30.763Z,1007.78
2018-12-07T00:28:30.699Z,1007.73
2018-12-07T00:29:30.676Z,1007.77
2018-12-07T00:30:30.701Z,1007.82
2018-12-07T00:31:30.720Z,1007.78
2018-12-07T00:32:30.750Z,1007.77
2018-12-07T00:33:30.755Z,1007.79
2018-12-07T00:34:30.771Z,1007.75
2018-12-07T00:35:30.789Z,1007.78
2018-12-07T00:36:30.828Z,1007.82
2018-12-07T00:37:30.833Z,1007.73
2018-12-07T00:38:30.920Z,1007.67
2018-12-07T00:39:30.862Z,1007.71
2018-12-07T00:40:30.873Z,1007.72
2018-12-07T00:41:51.911Z,1007.67
2018-12-07T00:42:30.922Z,1007.69
2018-12-07T00:43:30.932Z,1007.71
2018-12-07T00:44:30.951Z,1007.73
2018-12-07T00:45:30.998Z,1007.68
2018-12-07T00:46:31.000Z,1007.66
2018-12-07T00:47:31.003Z,1007.72
2018-12-07T00:48:31.011Z,1007.73
2018-12-07T00:49:31.066Z,1007.76
2018-12-07T00:50:31.052Z,1007.74
2018-12-07T00:51:31.079Z,1007.76
2018-12-07T00:52:31.084Z,1007.75
2018-12-07T00:53:31.101Z,1007.76
2018-12-07T00:54:31.122Z,1007.76
2018-12-07T00:55:31.246Z,1007.76
2018-12-07T00:56:31.169Z,1007.78
2018-12-07T00:57:31.181Z,1007.76
2018-12-07T00:58:31.203Z,1007.77
2018-12-07T00:59:31.212Z,1007.74
2018-12-07T01:00:31.245Z,1007.82
2018-12-07T01:02:31.283Z,1007.74
2018-12-07T01:03:31.284Z,1007.73
2018-12-07T01:04:31.323Z,1007.80
2018-12-07T01:05:31.335Z,1007.79
2018-12-07T01:06:31.342Z,1007.74
2018-12-07T01:07:31.365Z,1007.77
2018-12-07T01:08:31.374Z,1007.81
2018-12-07T01:09:31.407Z,1007.84
2018-12-07T01:10:31.411Z,1007.86
2018-12-07T01:11:31.443Z,1007.75
2018-12-07T01:12:31.451Z,1007.77
2018-12-07T01:13:31.482Z,1007.78
2018-12-07T01:14:31.488Z,1007.79
2018-12-07T01:15:31.499Z,1007.85
2018-12-07T01:16:31.520Z,1007.83
2018-12-07T01:17:31.532Z,1007.77
2018-12-07T01:18:31.586Z,1007.77
2018-12-07T01:19:31.736Z,1007.72
2018-12-07T01:20:31.590Z,1007.75
2018-12-07T01:21:31.616Z,1007.77
2018-12-07T01:22:31.652Z,1007.72
2018-12-07T01:23:31.685Z,1007.77
2018-12-07T01:24:31.695Z,1007.71
2018-12-07T01:25:31.682Z,1007.68
2018-12-07T01:26:31.696Z,1007.69
2018-12-07T01:27:31.716Z,1007.74
2018-12-07T01:28:31.750Z,1007.71
2018-12-07T01:29:31.764Z,1007.71
2018-12-07T01:30:31.776Z,1007.75
2018-12-07T01:31:31.785Z,1007.77
2018-12-07T01:32:31.805Z,1007.79
2018-12-07T01:33:31.823Z,1007.71
2018-12-07T01:34:31.845Z,1007.79
2018-12-07T01:35:31.861Z,1007.73
2018-12-07T01:36:31.920Z,1007.72
2018-12-07T01:37:31.900Z,1007.68
2018-12-07T01:38:31.913Z,1007.69
2018-12-07T01:39:31.931Z,1007.66
2018-12-07T01:40:31.956Z,1007.62
2018-12-07T01:41:31.969Z,1007.66
2018-12-07T01:42:31.982Z,1007.62
2018-12-07T01:43:32.015Z,1007.62
2018-12-07T01:44:32.037Z,1007.58
2018-12-07T01:45:32.039Z,1007.54
2018-12-07T01:46:32.061Z,1007.52
2018-12-07T01:47:53.090Z,1007.52
2018-12-07T01:48:32.088Z,1007.45
2018-12-07T01:49:32.112Z,1007.47
2018-12-07T01:50:32.122Z,1007.50
2018-12-07T01:51:32.145Z,1007.43
2018-12-07T01:52:32.191Z,1007.44
2018-12-07T01:53:32.192Z,1007.37
2018-12-07T01:54:32.196Z,1007.33
2018-12-07T01:55:32.215Z,1007.35
2018-12-07T01:56:32.234Z,1007.35
2018-12-07T01:57:32.252Z,1007.38
2018-12-07T01:58:32.271Z,1007.36
2018-12-07T01:59:32.282Z,1007.36
2018-12-07T02:00:32.328Z,1007.31
2018-12-07T02:01:32.321Z,1007.40
2018-12-07T02:02:32.352Z,1007.35
2018-12-07T02:03:32.358Z,1007.30
2018-12-07T02:04:32.419Z,1007.32
2018-12-07T02:05:32.387Z,1007.32
2018-12-07T02:06:32.407Z,1007.28
2018-12-07T02:07:32.425Z,1007.27
2018-12-07T02:08:32.441Z,1007.24
2018-12-07T02:09:32.463Z,1007.25
2018-12-07T02:10:32.488Z,1007.21
2018-12-07T02:11:32.563Z,1007.26
2018-12-07T02:12:32.522Z,1007.27
2018-12-07T02:13:32.540Z,1007.19
2018-12-07T02:14:32.553Z,1007.18
2018-12-07T02:15:32.712Z,1007.19
2018-12-07T02:16:32.592Z,1007.24
2018-12-07T02:17:32.607Z,1007.17
2018-12-07T02:18:32.634Z,1007.14
2018-12-07T02:19:32.637Z,1007.16
2018-12-07T02:20:32.658Z,1007.19
2018-12-07T02:21:32.679Z,1007.24
2018-12-07T02:22:32.686Z,1007.19
2018-12-07T02:24:32.733Z,1007.11
2018-12-07T02:25:32.744Z,1007.14
2018-12-07T02:26:32.767Z,1007.14
2018-12-07T02:27:32.792Z,1007.12
2018-12-07T02:28:32.812Z,1007.07
2018-12-07T02:29:32.816Z,1007.07
2018-12-07T02:30:32.836Z,1007.03
2018-12-07T02:31:32.858Z,1007.05
2018-12-07T02:32:32.873Z,1007.04
2018-12-07T02:33:32.896Z,1007.01
2018-12-07T02:34:32.910Z,1006.93
2018-12-07T02:35:32.930Z,1006.90
2018-12-07T02:36:32.938Z,1006.92
2018-12-07T02:37:32.962Z,1006.81
2018-12-07T02:38:33.002Z,1006.79
2018-12-07T02:39:33.008Z,1006.72
2018-12-07T02:40:33.021Z,1006.68
2018-12-07T02:41:33.028Z,1006.66
2018-12-07T02:42:33.058Z,1006.66
2018-12-07T02:43:33.157Z,1006.61
2018-12-07T02:44:33.097Z,1006.61
2018-12-07T02:45:33.099Z,1006.63
2018-12-07T02:46:33.122Z,1006.63
2018-12-07T02:47:33.155Z,1006.61
2018-12-07T02:48:33.157Z,1006.63
2018-12-07T02:49:33.176Z,1006.57
2018-12-07T02:50:33.191Z,1006.48
2018-12-07T02:52:33.228Z,1006.53
2018-12-07T02:53:33.242Z,1006.49
2018-12-07T02:54:33.329Z,1006.52
2018-12-07T02:58:33.337Z,1006.43
2018-12-07T02:59:33.353Z,1006.49
2018-12-07T03:00:33.373Z,1006.51
2018-12-07T03:01:33.388Z,1006.49
2018-12-07T03:02:33.404Z,1006.47
2018-12-07T03:03:33.436Z,1006.52
2018-12-07T03:04:33.449Z,1006.46
2018-12-07T03:05:33.460Z,1006.40
2018-12-07T03:06:33.481Z,1006.37
2018-12-07T03:07:33.554Z,1006.39
2018-12-07T03:08:33.510Z,1006.39
2018-12-07T03:09:33.530Z,1006.35
2018-12-07T03:10:33.551Z,1006.39
2018-12-07T03:11:33.575Z,1006.37
2018-12-07T03:12:33.599Z,1006.38
2018-12-07T03:13:33.604Z,1006.31
2018-12-07T03:14:33.624Z,1006.34
2018-12-07T03:15:33.653Z,1006.31
2018-12-07T03:16:33.663Z,1006.32
2018-12-07T03:17:33.676Z,1006.30
2018-12-07T03:18:33.700Z,1006.28
2018-12-07T03:19:33.716Z,1006.32
2018-12-07T03:20:33.796Z,1006.28
2018-12-07T03:21:33.753Z,1006.25
2018-12-07T03:22:33.771Z,1006.27
2018-12-07T03:23:33.790Z,1006.26
2018-12-07T03:24:33.863Z,1006.27
2018-12-07T03:25:33.829Z,1006.25
2018-12-07T03:26:33.839Z,1006.25
2018-12-07T03:28:33.875Z,1006.21
2018-12-07T03:29:33.890Z,1006.24
2018-12-07T03:30:33.911Z,1006.16
2018-12-07T03:32:33.963Z,1006.25
2018-12-07T03:33:33.963Z,1006.29
2018-12-07T03:34:33.977Z,1006.20
2018-12-07T03:35:34.004Z,1006.25
2018-12-07T03:37:34.045Z,1006.28
2018-12-07T03:38:34.053Z,1006.24
2018-12-07T03:39:34.071Z,1006.35
2018-12-07T03:40:34.088Z,1006.26
2018-12-07T03:41:34.111Z,1006.26
2018-12-07T03:42:34.129Z,1006.28
2018-12-07T03:43:34.145Z,1006.26
2018-12-07T03:44:34.170Z,1006.25
2018-12-07T03:45:34.211Z,1006.27
2018-12-07T03:46:34.239Z,1006.24
2018-12-07T03:47:34.293Z,1006.24
2018-12-07T03:48:34.265Z,1006.25
2018-12-07T03:49:34.253Z,1006.20
2018-12-07T03:50:34.268Z,1006.19
2018-12-07T03:51:34.289Z,1006.20
2018-12-07T03:52:34.336Z,1006.23
2018-12-07T03:53:34.326Z,1006.22
2018-12-07T03:54:34.344Z,1006.21
2018-12-07T03:55:34.357Z,1006.19
2018-12-07T03:56:34.376Z,1006.15
2018-12-07T03:57:34.397Z,1006.14
2018-12-07T03:58:34.412Z,1006.17
2018-12-07T03:59:34.428Z,1006.18
2018-12-07T04:00:34.450Z,1006.09
2018-12-07T04:01:34.472Z,1006.15
2018-12-07T04:02:34.481Z,1006.17
2018-12-07T04:03:34.508Z,1006.16
2018-12-07T04:04:34.526Z,1006.19
2018-12-07T04:05:34.545Z,1006.20
2018-12-07T04:06:34.564Z,1006.13
2018-12-07T04:07:34.599Z,1006.18
2018-12-07T04:08:34.603Z,1006.11
2018-12-07T04:09:34.610Z,1006.09
2018-12-07T04:10:34.645Z,1006.15
2018-12-07T04:11:34.648Z,1006.08
2018-12-07T04:12:34.694Z,1006.10
2018-12-07T04:13:34.689Z,1006.13
2018-12-07T04:14:34.704Z,1006.04
2018-12-07T04:15:34.729Z,1006.15
2018-12-07T04:16:34.760Z,1006.06
2018-12-07T04:17:34.748Z,1006.05
2018-12-07T04:18:34.766Z,1006.04
2018-12-07T04:19:34.789Z,1006.01
2018-12-07T04:20:34.852Z,1005.98
2018-12-07T04:21:34.822Z,1006.03
2018-12-07T04:22:34.841Z,1005.97
2018-12-07T04:23:34.861Z,1005.98
2018-12-07T04:24:34.880Z,1005.99
2018-12-07T04:25:34.898Z,1006.02
2018-12-07T04:26:34.922Z,1006.04
2018-12-07T04:27:34.933Z,1006.03
2018-12-07T04:28:36.221Z,1005.96
2018-12-07T04:29:35.012Z,1005.99
2018-12-07T04:30:34.998Z,1005.99
2018-12-07T04:32:35.032Z,1006.01
2018-12-07T04:33:35.084Z,1006.00
2018-12-07T04:34:35.057Z,1005.96
2018-12-07T04:35:35.078Z,1006.02
2018-12-07T04:36:35.090Z,1006.02
2018-12-07T04:37:35.112Z,1005.97
2018-12-07T04:38:35.130Z,1006.04
2018-12-07T04:39:35.148Z,1006.01
2018-12-07T04:40:35.172Z,1006.02
2018-12-07T04:41:35.231Z,1006.03
2018-12-07T04:42:35.252Z,1006.02
2018-12-07T04:43:35.215Z,1005.96
2018-12-07T04:44:35.333Z,1005.98
2018-12-07T04:45:35.250Z,1005.91
2018-12-07T04:46:35.286Z,1005.86
2018-12-07T04:47:35.287Z,1005.98
2018-12-07T04:48:35.304Z,1005.94
2018-12-07T04:49:35.340Z,1005.92
2018-12-07T04:50:35.343Z,1005.88
2018-12-07T04:51:35.357Z,1005.90
2018-12-07T04:52:35.384Z,1005.92
2018-12-07T04:53:35.398Z,1005.84
2018-12-07T04:54:35.418Z,1005.84
2018-12-07T04:55:35.523Z,1005.89
2018-12-07T04:56:35.473Z,1005.83
2018-12-07T04:57:35.534Z,1005.85
2018-12-07T04:58:35.574Z,1005.76
2018-12-07T04:59:35.506Z,1005.78
2018-12-07T05:00:35.530Z,1005.77
2018-12-07T05:01:35.552Z,1005.77
2018-12-07T05:02:35.561Z,1005.77
2018-12-07T05:03:35.575Z,1005.70
2018-12-07T05:05:35.609Z,1005.70
2018-12-07T05:06:35.629Z,1005.75
2018-12-07T05:08:35.676Z,1005.72
2018-12-07T05:09:35.687Z,1005.75
2018-12-07T05:10:35.745Z,1005.76
2018-12-07T05:11:35.722Z,1005.77
2018-12-07T05:13:35.771Z,1005.80
2018-12-07T05:14:35.780Z,1005.75
2018-12-07T05:15:35.834Z,1005.73
2018-12-07T05:16:35.799Z,1005.73
2018-12-07T05:17:35.823Z,1005.69
2018-12-07T05:18:35.874Z,1005.69
2018-12-07T05:19:35.861Z,1005.69
2018-12-07T05:20:35.874Z,1005.66
2018-12-07T05:21:35.889Z,1005.65
2018-12-07T05:22:35.904Z,1005.61
2018-12-07T05:23:35.928Z,1005.62
2018-12-07T05:24:35.951Z,1005.60
2018-12-07T05:25:35.962Z,1005.60
2018-12-07T05:26:35.978Z,1005.59
2018-12-07T05:27:36.006Z,1005.63
2018-12-07T05:28:36.020Z,1005.60
2018-12-07T05:29:36.028Z,1005.64
2018-12-07T05:30:36.063Z,1005.62
2018-12-07T05:31:36.070Z,1005.64
2018-12-07T05:32:36.082Z,1005.63
2018-12-07T05:34:36.124Z,1005.64
2018-12-07T05:35:36.166Z,1005.57
2018-12-07T05:36:36.162Z,1005.57
2018-12-07T05:37:36.180Z,1005.52
2018-12-07T05:38:36.189Z,1005.51
2018-12-07T05:39:36.208Z,1005.55
2018-12-07T05:40:36.228Z,1005.50
2018-12-07T05:41:36.276Z,1005.52
2018-12-07T05:42:36.282Z,1005.47
2018-12-07T05:43:36.330Z,1005.46
2018-12-07T05:44:36.324Z,1005.53
2018-12-07T05:45:36.337Z,1005.49
2018-12-07T05:46:36.340Z,1005.50
2018-12-07T05:47:36.356Z,1005.51
2018-12-07T05:48:36.390Z,1005.49
2018-12-07T05:49:36.450Z,1005.45
2018-12-07T05:50:36.424Z,1005.50
2018-12-07T05:51:36.496Z,1005.45
2018-12-07T05:52:36.454Z,1005.48
2018-12-07T05:53:36.586Z,1005.48
2018-12-07T05:54:36.487Z,1005.46
2018-12-07T05:55:36.497Z,1005.42
2018-12-07T05:56:36.517Z,1005.40
2018-12-07T05:57:36.547Z,1005.42
2018-12-07T05:58:36.552Z,1005.40
2018-12-07T05:59:36.566Z,1005.37
2018-12-07T06:00:36.576Z,1005.34
2018-12-07T06:01:36.603Z,1005.33
2018-12-07T06:02:36.612Z,1005.33
2018-12-07T06:03:36.641Z,1005.31
2018-12-07T06:04:36.754Z,1005.31
2018-12-07T06:05:36.692Z,1005.37
2018-12-07T06:06:36.761Z,1005.31
2018-12-07T06:07:36.713Z,1005.29
2018-12-07T06:08:36.720Z,1005.33
2018-12-07T06:09:36.738Z,1005.31
2018-12-07T06:10:36.754Z,1005.27
2018-12-07T06:11:36.791Z,1005.24
2018-12-07T06:12:36.796Z,1005.20
2018-12-07T06:13:36.808Z,1005.14
2018-12-07T06:14:36.912Z,1005.19
2018-12-07T06:15:36.859Z,1005.13
2018-12-07T06:16:36.860Z,1005.12
2018-12-07T06:17:37.095Z,1005.17
2018-12-07T06:18:36.897Z,1005.15
2018-12-07T06:19:36.919Z,1005.13
2018-12-07T06:20:36.933Z,1005.15
2018-12-07T06:21:36.961Z,1005.14
2018-12-07T06:22:36.970Z,1005.14
2018-12-07T06:23:36.989Z,1005.14
2018-12-07T06:24:37.016Z,1005.12
2018-12-07T06:25:37.049Z,1005.13
2018-12-07T06:26:37.041Z,1005.10
2018-12-07T06:27:37.062Z,1005.04
2018-12-07T06:28:37.084Z,1005.05
2018-12-07T06:29:37.102Z,1005.01
2018-12-07T06:30:37.107Z,1005.04
2018-12-07T06:32:37.292Z,1004.97
2018-12-07T06:33:37.186Z,1004.95
2018-12-07T06:34:37.183Z,1004.94
2018-12-07T06:35:37.199Z,1004.98
2018-12-07T06:36:37.216Z,1004.97
2018-12-07T06:37:37.240Z,1004.92
2018-12-07T06:38:37.253Z,1004.91
2018-12-07T06:39:37.274Z,1004.88
2018-12-07T06:40:37.296Z,1004.93
2018-12-07T06:41:37.319Z,1004.91
2018-12-07T06:42:37.329Z,1004.88
2018-12-07T06:43:37.342Z,1004.88
2018-12-07T06:44:37.365Z,1004.85
2018-12-07T06:45:37.439Z,1004.86
2018-12-07T06:46:37.413Z,1004.92
2018-12-07T06:47:37.423Z,1004.79
2018-12-07T06:48:37.439Z,1004.84
2018-12-07T06:49:37.481Z,1004.82
2018-12-07T06:50:37.479Z,1004.84
2018-12-07T06:51:37.489Z,1004.80
2018-12-07T06:52:37.528Z,1004.83
2018-12-07T06:53:37.518Z,1004.80
2018-12-07T06:54:37.541Z,1004.80
2018-12-07T06:55:37.564Z,1004.82
2018-12-07T06:56:37.576Z,1004.80
2018-12-07T06:57:37.592Z,1004.82
2018-12-07T06:59:37.627Z,1004.80
2018-12-07T07:00:37.720Z,1004.80
2018-12-07T07:01:37.669Z,1004.77
2018-12-07T07:02:37.708Z,1004.74
2018-12-07T07:03:37.710Z,1004.75
2018-12-07T07:04:37.716Z,1004.78
2018-12-07T07:05:37.734Z,1004.69
2018-12-07T07:06:37.753Z,1004.73
2018-12-07T07:07:37.776Z,1004.73
2018-12-07T07:08:37.802Z,1004.75
2018-12-07T07:09:37.812Z,1004.74
2018-12-07T07:10:37.830Z,1004.67
2018-12-07T07:11:37.846Z,1004.78
2018-12-07T07:12:37.866Z,1004.71
2018-12-07T07:13:37.969Z,1004.69
2018-12-07T07:14:37.902Z,1004.69
2018-12-07T07:15:37.916Z,1004.67
2018-12-07T07:16:37.932Z,1004.73
2018-12-07T07:17:37.953Z,1004.71
2018-12-07T07:18:37.969Z,1004.75
2018-12-07T07:19:37.986Z,1004.75
2018-12-07T07:20:38.006Z,1004.70
2018-12-07T07:21:38.024Z,1004.65
2018-12-07T07:22:38.040Z,1004.60
2018-12-07T07:23:38.061Z,1004.66
2018-12-07T07:24:38.075Z,1004.59
2018-12-07T07:25:38.096Z,1004.59
2018-12-07T07:26:38.122Z,1004.62
2018-12-07T07:27:38.154Z,1004.58
2018-12-07T07:28:38.168Z,1004.56
2018-12-07T07:29:38.169Z,1004.52
2018-12-07T07:30:38.228Z,1004.46
2018-12-07T07:31:43.365Z,1004.47
2018-12-07T07:32:38.224Z,1004.44
2018-12-07T07:33:38.240Z,1004.40
2018-12-07T07:34:38.257Z,1004.43
2018-12-07T07:35:38.282Z,1004.36
2018-12-07T07:36:38.290Z,1004.40
2018-12-07T07:37:38.306Z,1004.40
2018-12-07T07:38:38.379Z,1004.36
2018-12-07T07:39:38.351Z,1004.36
2018-12-07T07:40:38.372Z,1004.34
2018-12-07T07:41:38.389Z,1004.34
2018-12-07T07:42:38.398Z,1004.32
2018-12-07T07:43:38.415Z,1004.24
2018-12-07T07:44:38.440Z,1004.28
2018-12-07T07:45:38.453Z,1004.22
2018-12-07T07:46:38.479Z,1004.27
2018-12-07T07:47:38.498Z,1004.18
2018-12-07T07:48:38.516Z,1004.18
2018-12-07T07:49:38.590Z,1004.18
2018-12-07T07:50:38.539Z,1004.09
2018-12-07T07:51:38.558Z,1004.12
2018-12-07T07:52:38.590Z,1004.13
2018-12-07T07:53:38.606Z,1004.14
2018-12-07T07:54:38.629Z,1004.11
2018-12-07T07:55:38.641Z,1004.11
2018-12-07T07:56:38.658Z,1004.16
2018-12-07T07:57:38.669Z,1004.18
2018-12-07T07:59:38.709Z,1004.08
2018-12-07T08:00:38.718Z,1004.08
2018-12-07T08:01:38.738Z,1004.06
2018-12-07T08:02:38.753Z,1004.08
2018-12-07T08:03:38.782Z,1004.07
2018-12-07T08:04:38.795Z,1004.06
2018-12-07T08:05:38.811Z,1003.99
2018-12-07T08:06:38.830Z,1004.00
2018-12-07T08:07:38.844Z,1003.99
2018-12-07T08:08:38.880Z,1004.00
2018-12-07T08:09:39.015Z,1003.98
2018-12-07T08:10:38.909Z,1003.90
2018-12-07T08:11:38.919Z,1003.91
2018-12-07T08:12:38.937Z,1003.89
2018-12-07T08:13:38.963Z,1003.91
2018-12-07T08:14:38.970Z,1003.92
2018-12-07T08:15:39.000Z,1003.91
2018-12-07T08:16:39.017Z,1003.89
2018-12-07T08:17:39.023Z,1003.86
2018-12-07T08:18:39.043Z,1003.88
2018-12-07T08:19:39.062Z,1003.90
2018-12-07T08:20:39.089Z,1003.87
2018-12-07T08:21:39.169Z,1003.85
2018-12-07T08:23:39.134Z,1003.81
2018-12-07T08:24:39.151Z,1003.80
2018-12-07T08:25:39.169Z,1003.79
2018-12-07T08:26:39.186Z,1003.80
2018-12-07T08:27:39.205Z,1003.76
2018-12-07T08:28:39.225Z,1003.77
2018-12-07T08:29:39.347Z,1003.74
2018-12-07T08:30:39.254Z,1003.70
2018-12-07T08:31:39.277Z,1003.70
2018-12-07T08:32:39.298Z,1003.66
2018-12-07T08:33:39.442Z,1003.67
2018-12-07T08:34:39.344Z,1003.59
2018-12-07T08:35:39.359Z,1003.59
2018-12-07T08:36:39.397Z,1003.60
2018-12-07T08:37:39.391Z,1003.60
2018-12-07T08:38:39.417Z,1003.58
2018-12-07T08:39:39.429Z,1003.54
2018-12-07T08:40:39.437Z,1003.53
2018-12-07T08:41:39.461Z,1003.55
2018-12-07T08:42:39.484Z,1003.58
2018-12-07T08:43:39.573Z,1003.56
2018-12-07T08:44:39.506Z,1003.53
2018-12-07T08:45:39.539Z,1003.47
2018-12-07T08:46:39.595Z,1003.42
2018-12-07T08:48:39.601Z,1003.51
2018-12-07T08:49:39.595Z,1003.53
2018-12-07T08:50:39.689Z,1003.52
2018-12-07T08:51:39.637Z,1003.58
2018-12-07T08:52:39.652Z,1003.55
2018-12-07T08:53:39.673Z,1003.56
2018-12-07T08:54:39.688Z,1003.57
2018-12-07T08:55:39.725Z,1003.56
2018-12-07T08:57:39.745Z,1003.60
2018-12-07T08:58:39.765Z,1003.56
2018-12-07T08:59:39.789Z,1003.60
2018-12-07T09:00:39.802Z,1003.55
2018-12-07T09:01:39.851Z,1003.54
2018-12-07T09:02:39.852Z,1003.56
2018-12-07T09:03:39.873Z,1003.56
2018-12-07T09:04:39.867Z,1003.51
2018-12-07T09:05:39.889Z,1003.45
2018-12-07T09:06:39.908Z,1003.47
2018-12-07T09:08:39.951Z,1003.51
2018-12-07T09:09:39.973Z,1003.49
2018-12-07T09:10:39.984Z,1003.40
2018-12-07T09:11:40.000Z,1003.41
2018-12-07T09:12:40.024Z,1003.44
2018-12-07T09:13:40.044Z,1003.44
2018-12-07T09:14:40.086Z,1003.40
2018-12-07T09:15:40.142Z,1003.41
2018-12-07T09:16:40.102Z,1003.43
2018-12-07T09:17:40.107Z,1003.39
2018-12-07T09:18:40.164Z,1003.34
2018-12-07T09:20:40.166Z,1003.17
2018-12-07T09:21:40.190Z,1003.29
2018-12-07T09:22:40.208Z,1003.34
2018-12-07T09:23:40.221Z,1003.25
2018-12-07T09:24:40.249Z,1003.36
2018-12-07T09:25:40.254Z,1003.32
2018-12-07T09:26:40.270Z,1003.27
2018-12-07T09:27:40.296Z,1003.40
2018-12-07T09:28:40.325Z,1003.32
2018-12-07T09:30:41.236Z,1003.34
2018-12-07T09:31:40.363Z,1003.33
2018-12-07T09:32:40.385Z,1003.54
2018-12-07T09:33:40.403Z,1003.54
2018-12-07T09:34:40.436Z,1003.36
2018-12-07T09:35:40.437Z,1003.27
2018-12-07T09:36:40.454Z,1003.36
2018-12-07T09:37:40.492Z,1003.19
2018-12-07T09:38:40.502Z,1003.33
2018-12-07T09:39:40.522Z,1003.22
2018-12-07T09:41:40.555Z,1003.17
2018-12-07T09:42:40.649Z,1003.24
2018-12-07T09:43:40.587Z,1003.13
2018-12-07T09:44:40.606Z,1003.11
2018-12-07T09:46:40.653Z,1003.10
2018-12-07T09:47:40.666Z,1003.09
2018-12-07T09:48:40.677Z,1003.13
2018-12-07T09:49:40.703Z,1003.07
2018-12-07T09:50:40.729Z,1003.08
2018-12-07T09:51:40.737Z,1003.08
2018-12-07T09:52:40.757Z,1003.19
2018-12-07T09:53:40.774Z,1003.18
2018-12-07T09:54:40.795Z,1003.04
2018-12-07T09:55:40.820Z,1003.08
2018-12-07T09:56:40.824Z,1003.01
2018-12-07T09:57:40.859Z,1002.97
2018-12-07T09:58:40.874Z,1003.01
2018-12-07T09:59:40.882Z,1002.99
2018-12-07T10:00:40.912Z,1002.97
2018-12-07T10:01:40.919Z,1002.99
2018-12-07T10:02:40.938Z,1002.96
2018-12-07T10:03:40.966Z,1002.99
2018-12-07T10:04:40.980Z,1002.92
2018-12-07T10:05:40.995Z,1002.94
2018-12-07T10:06:41.016Z,1002.91
2018-12-07T10:07:41.038Z,1002.96
2018-12-07T10:08:41.056Z,1002.92
2018-12-07T10:09:41.078Z,1002.90
2018-12-07T10:10:41.140Z,1002.93
2018-12-07T10:11:41.108Z,1002.95
2018-12-07T10:12:41.134Z,1002.97
2018-12-07T10:13:41.155Z,1002.91
2018-12-07T10:14:41.174Z,1002.79
2018-12-07T10:15:41.218Z,1002.87
2018-12-07T10:16:41.214Z,1002.80
2018-12-07T10:18:41.252Z,1002.79
2018-12-07T10:19:41.284Z,1002.80
2018-12-07T10:20:41.280Z,1002.94
2018-12-07T10:21:41.419Z,1002.79
2018-12-07T10:22:41.314Z,1002.85
2018-12-07T10:23:41.333Z,1002.75
2018-12-07T10:24:41.356Z,1002.69
2018-12-07T10:25:41.373Z,1002.63
2018-12-07T10:26:41.388Z,1002.70
2018-12-07T10:27:41.428Z,1002.62
2018-12-07T10:28:41.424Z,1002.57
2018-12-07T10:29:41.450Z,1002.57
2018-12-07T10:30:41.511Z,1002.57
2018-12-07T10:31:41.491Z,1002.57
2018-12-07T10:32:41.501Z,1002.57
2018-12-07T10:33:41.528Z,1002.61
2018-12-07T10:34:41.561Z,1002.47
2018-12-07T10:35:41.551Z,1002.48
2018-12-07T10:36:41.585Z,1002.52
2018-12-07T10:37:41.598Z,1002.49
2018-12-07T10:38:41.615Z,1002.39
2018-12-07T10:39:41.629Z,1002.43
2018-12-07T10:40:41.651Z,1002.31
2018-12-07T10:41:41.665Z,1002.29
2018-12-07T10:42:41.719Z,1002.29
2018-12-07T10:43:41.704Z,1002.31
2018-12-07T10:44:41.730Z,1002.24
2018-12-07T10:45:41.744Z,1002.43
2018-12-07T10:46:41.754Z,1002.26
2018-12-07T10:47:41.774Z,1002.20
2018-12-07T10:48:41.803Z,1002.29
2018-12-07T10:49:41.854Z,1002.10
2018-12-07T10:50:41.832Z,1002.18
2018-12-07T10:51:41.852Z,1002.08
2018-12-07T10:52:41.865Z,1002.11
2018-12-07T10:53:41.884Z,1002.04
2018-12-07T10:54:41.933Z,1002.04
2018-12-07T10:55:41.987Z,1001.97
2018-12-07T10:56:41.938Z,1001.97
2018-12-07T10:57:41.957Z,1001.91
2018-12-07T10:58:41.976Z,1001.91
2018-12-07T10:59:41.993Z,1001.94
2018-12-07T11:00:42.060Z,1002.02
2018-12-07T11:01:42.025Z,1001.95
2018-12-07T11:02:42.171Z,1001.90
2018-12-07T11:03:42.078Z,1001.86
2018-12-07T11:04:42.080Z,1001.89
2018-12-07T11:05:42.108Z,1001.93
2018-12-07T11:06:42.131Z,1001.85
2018-12-07T11:07:42.143Z,1001.84
2018-12-07T11:09:42.174Z,1001.75
2018-12-07T11:11:42.211Z,1001.84
2018-12-07T11:12:42.246Z,1001.74
2018-12-07T11:13:42.244Z,1001.70
2018-12-07T11:14:42.262Z,1001.78
2018-12-07T11:15:42.282Z,1001.67
2018-12-07T11:16:42.318Z,1001.73
2018-12-07T11:17:42.320Z,1001.73
2018-12-07T11:18:42.339Z,1001.63
2018-12-07T11:19:42.351Z,1001.61
2018-12-07T11:20:42.367Z,1001.67
2018-12-07T11:21:42.390Z,1001.62
2018-12-07T11:22:42.409Z,1001.58
2018-12-07T11:23:42.441Z,1001.56
2018-12-07T11:24:42.445Z,1001.58
2018-12-07T11:26:42.556Z,1001.56
2018-12-07T11:28:42.526Z,1001.43
2018-12-07T11:29:42.542Z,1001.50
2018-12-07T11:30:42.554Z,1001.43
2018-12-07T11:31:42.570Z,1001.49
2018-12-07T11:32:42.607Z,1001.49
2018-12-07T11:33:42.609Z,1001.46
2018-12-07T11:34:42.629Z,1001.42
2018-12-07T11:35:42.643Z,1001.34
2018-12-07T11:36:42.667Z,1001.33
2018-12-07T11:37:42.677Z,1001.34
2018-12-07T11:38:42.705Z,1001.35
2018-12-07T11:39:42.737Z,1001.21
2018-12-07T11:40:42.735Z,1001.30
2018-12-07T11:41:42.798Z,1001.18
2018-12-07T11:42:42.791Z,1001.16
2018-12-07T11:43:42.797Z,1001.17
2018-12-07T11:44:42.805Z,1001.18
2018-12-07T11:45:42.847Z,1001.15
2018-12-07T11:46:42.851Z,1001.13
2018-12-07T11:47:42.868Z,1001.17
2018-12-07T11:48:42.879Z,1001.17
2018-12-07T11:49:42.895Z,1001.18
2018-12-07T11:50:42.924Z,1001.15
2018-12-07T11:51:42.937Z,1001.13
2018-12-07T11:52:42.986Z,1001.09
2018-12-07T11:53:42.972Z,1001.06
2018-12-07T11:54:43.107Z,1001.06
2018-12-07T11:55:43.009Z,1001.08
2018-12-07T11:56:43.023Z,1001.02
2018-12-07T11:57:43.049Z,1001.00
2018-12-07T11:58:43.142Z,1000.96
2018-12-07T11:59:43.097Z,1000.93
2018-12-07T12:00:43.097Z,1000.89
2018-12-07T12:01:44.894Z,1000.96
2018-12-07T12:02:43.147Z,1000.85
2018-12-07T12:03:43.158Z,1000.79
2018-12-07T12:04:43.171Z,1000.77
2018-12-07T12:05:43.194Z,1000.72
2018-12-07T12:06:43.220Z,1000.68
2018-12-07T12:07:43.229Z,1000.59
2018-12-07T12:08:43.245Z,1000.63
2018-12-07T12:09:43.319Z,1000.59
2018-12-07T12:10:43.284Z,1000.64
2018-12-07T12:11:43.310Z,1000.58
2018-12-07T12:12:43.315Z,1000.46
2018-12-07T12:13:43.337Z,1000.51
2018-12-07T12:15:43.385Z,1000.39
2018-12-07T12:16:43.393Z,1000.33
2018-12-07T12:17:43.405Z,1000.34
2018-12-07T12:18:43.436Z,1000.27
2018-12-07T12:19:43.465Z,1000.31
2018-12-07T12:20:43.472Z,1000.31
2018-12-07T12:21:43.511Z,1000.30
2018-12-07T12:22:43.603Z,1000.33
2018-12-07T12:23:43.513Z,1000.22
2018-12-07T12:24:43.540Z,1000.16
2018-12-07T12:25:43.548Z,1000.16
2018-12-07T12:26:43.577Z,1000.14
2018-12-07T12:27:43.587Z,1000.10
2018-12-07T12:28:43.609Z,1000.08
2018-12-07T12:29:43.628Z,1000.02
2018-12-07T12:30:43.671Z,999.98
2018-12-07T12:31:43.660Z,1000.17
2018-12-07T12:32:43.738Z,999.90
2018-12-07T12:34:43.712Z,999.88
2018-12-07T12:35:43.764Z,999.81
2018-12-07T12:36:43.748Z,999.80
2018-12-07T12:37:43.798Z,999.80
2018-12-07T12:38:43.800Z,999.77
2018-12-07T12:39:43.824Z,999.79
2018-12-07T12:40:43.823Z,999.67